Terminal Aerodrome Forecast
Issued by NWS Dodge City, KS

Home | Current Version | Previous Version | Graphics & Text | Print | Product List | Glossary Off
Versions: 1 2 3 4 5 6 7 8 9 10 11 12 13 14 15 16 17 18 19 20 21 22 23 24 25 26 27 28 29 30 31 32 33 34 35 36 37 38 39 40 41 42 43 44 45 46 47 48 49 50

760
FTUS43 KDDC 171720
TAFDDC
TAF
KDDC 171720Z 1718/1818 30006KT P6SM SKC
     FM180000 18006KT P6SM SKC
     FM180600 20007KT P6SM BKN200
     FM181200 22007KT P6SM BKN070
     FM181500 20009KT 4SM BR BKN040 BKN100=

USA.gov is the U.S. government's official web portal to all federal, state and local government web resources and services.